createdAt,value
2022-12-15T00:00:17.445Z,48.97
2022-12-15T00:03:02.707Z,51.07
2022-12-15T00:05:49.759Z,49.93
2022-12-15T00:08:36.210Z,53.97
2022-12-15T00:11:22.747Z,55.47
2022-12-15T00:14:08.906Z,48.87
2022-12-15T00:16:54.740Z,50.27
2022-12-15T00:19:40.472Z,50.97
2022-12-15T00:22:26.577Z,56.93
2022-12-15T00:25:12.380Z,49.97
2022-12-15T00:27:58.052Z,52.70
2022-12-15T00:30:44.055Z,52.57
2022-12-15T00:33:31.433Z,52.70
2022-12-15T00:36:18.424Z,52.73
2022-12-15T00:38:46.198Z,52.50
2022-12-15T00:41:14.846Z,54.17
2022-12-15T00:43:42.088Z,49.40
2022-12-15T00:46:28.536Z,46.87
2022-12-15T00:48:55.781Z,47.33
2022-12-15T00:51:41.869Z,48.67
2022-12-15T00:54:27.997Z,53.57
2022-12-15T00:57:13.870Z,51.77
2022-12-15T01:00:00.121Z,50.03
2022-12-15T01:02:46.302Z,47.57
2022-12-15T01:05:32.244Z,50.00
2022-12-15T01:08:18.955Z,47.00
2022-12-15T01:11:04.737Z,48.80
2022-12-15T01:13:50.568Z,47.13
2022-12-15T01:16:37.089Z,47.77
2022-12-15T01:19:23.453Z,46.60
2022-12-15T01:21:50.713Z,47.87
2022-12-15T01:24:17.981Z,51.47
2022-12-15T01:26:45.404Z,49.40
2022-12-15T01:29:12.663Z,47.47
2022-12-15T01:31:39.496Z,52.00
2022-12-15T01:34:06.380Z,51.67
2022-12-15T01:36:33.171Z,49.70
2022-12-15T01:39:00.797Z,52.70
2022-12-15T01:41:29.066Z,46.37
2022-12-15T01:44:14.323Z,45.73
2022-12-15T01:46:41.395Z,46.23
2022-12-15T01:49:28.502Z,49.33
2022-12-15T01:52:02.207Z,49.60
2022-12-15T01:54:42.393Z,46.27
2022-12-15T01:57:14.494Z,47.97
2022-12-15T01:59:46.103Z,47.70
2022-12-15T02:02:15.377Z,45.60
2022-12-15T02:04:42.744Z,48.43
2022-12-15T02:07:17.538Z,45.07
2022-12-15T02:09:46.804Z,46.27
2022-12-15T02:12:31.815Z,46.23
2022-12-15T02:15:18.924Z,45.10
2022-12-15T02:18:01.932Z,44.93
2022-12-15T02:20:44.199Z,42.23
2022-12-15T02:23:29.673Z,44.93
2022-12-15T02:25:59.797Z,45.30
2022-12-15T02:28:35.561Z,44.60
2022-12-15T02:31:26.442Z,43.67
2022-12-15T02:34:03.913Z,42.47
2022-12-15T02:36:38.454Z,43.83
2022-12-15T02:39:06.153Z,42.47
2022-12-15T02:41:40.346Z,44.83
2022-12-15T02:44:12.940Z,45.00
2022-12-15T02:47:05.756Z,44.57
2022-12-15T02:49:49.658Z,42.63
2022-12-15T02:52:45.276Z,41.93
2022-12-15T02:55:30.821Z,43.27
2022-12-15T02:58:08.297Z,43.47
2022-12-15T03:00:41.630Z,43.27
2022-12-15T03:03:09.348Z,45.77
2022-12-15T03:05:37.455Z,42.57
2022-12-15T03:08:04.636Z,45.73
2022-12-15T03:10:31.481Z,42.87
2022-12-15T03:12:58.967Z,42.00
2022-12-15T03:15:29.155Z,39.40
2022-12-15T03:18:00.242Z,42.20
2022-12-15T03:20:28.009Z,39.93
2022-12-15T03:22:54.805Z,42.87
2022-12-15T03:25:21.852Z,45.13
2022-12-15T03:27:48.815Z,41.67
2022-12-15T03:30:16.274Z,38.47
2022-12-15T03:32:43.060Z,42.77
2022-12-15T03:35:10.215Z,40.63
2022-12-15T03:37:37.170Z,43.40
2022-12-15T03:40:04.272Z,43.07
2022-12-15T03:42:49.573Z,39.27
2022-12-15T03:45:21.862Z,38.23
2022-12-15T03:47:49.499Z,46.47
2022-12-15T03:50:19.612Z,42.57
2022-12-15T03:52:53.830Z,40.07
2022-12-15T03:55:21.740Z,40.17
2022-12-15T03:57:49.220Z,42.03
2022-12-15T04:00:18.551Z,44.37
2022-12-15T04:02:46.682Z,46.13
2022-12-15T04:05:25.735Z,43.60
2022-12-15T04:07:57.679Z,40.27
2022-12-15T04:10:31.906Z,40.67
2022-12-15T04:13:06.486Z,42.10
2022-12-15T04:15:34.696Z,43.63
2022-12-15T04:18:03.044Z,41.60
2022-12-15T04:20:30.270Z,39.23
2022-12-15T04:22:57.156Z,43.60
2022-12-15T04:25:44.137Z,40.10
2022-12-15T04:28:31.149Z,43.30
2022-12-15T04:31:29.930Z,40.53
2022-12-15T04:34:23.428Z,43.70
2022-12-15T04:37:11.525Z,41.73
2022-12-15T04:40:00.943Z,42.77
2022-12-15T04:42:48.646Z,43.47
2022-12-15T04:45:37.712Z,43.50
2022-12-15T04:48:41.668Z,38.77
2022-12-15T04:51:27.157Z,39.33
2022-12-15T04:54:12.454Z,41.57
2022-12-15T04:56:58.140Z,40.27
2022-12-15T04:59:43.512Z,42.10
2022-12-15T05:02:29.617Z,39.60
2022-12-15T05:05:15.057Z,38.07
2022-12-15T05:08:01.634Z,38.73
2022-12-15T05:10:46.967Z,42.67
2022-12-15T05:13:51.780Z,41.30
2022-12-15T05:16:37.148Z,43.27
2022-12-15T05:19:22.738Z,43.20
2022-12-15T05:22:08.427Z,39.70
2022-12-15T05:24:53.973Z,43.57
2022-12-15T05:27:39.360Z,49.83
2022-12-15T05:30:25.244Z,43.07
2022-12-15T05:32:52.011Z,37.27
2022-12-15T05:35:18.975Z,40.80
2022-12-15T05:37:45.960Z,37.70
2022-12-15T05:40:12.792Z,36.50
2022-12-15T05:42:39.529Z,39.70
2022-12-15T05:45:06.681Z,36.67
2022-12-15T05:47:33.530Z,40.43
2022-12-15T05:50:00.401Z,37.33
2022-12-15T05:52:27.248Z,35.93
2022-12-15T05:54:54.017Z,37.33
2022-12-15T05:57:20.972Z,39.63
2022-12-15T05:59:47.727Z,37.03
2022-12-15T06:02:14.650Z,41.03
2022-12-15T06:04:41.591Z,36.77
2022-12-15T06:07:08.693Z,37.33
2022-12-15T06:09:35.425Z,35.70
2022-12-15T06:12:02.233Z,35.90
2022-12-15T06:14:28.976Z,43.00
2022-12-15T06:16:55.951Z,45.83
2022-12-15T06:19:23.010Z,42.10
2022-12-15T06:21:50.084Z,41.40
2022-12-15T06:24:16.921Z,41.80
2022-12-15T06:26:44.213Z,42.73
2022-12-15T06:29:12.267Z,40.33
2022-12-15T06:31:40.045Z,36.73
2022-12-15T06:34:10.367Z,36.67
2022-12-15T06:36:37.829Z,38.63
2022-12-15T06:39:06.898Z,42.23
2022-12-15T06:41:33.834Z,36.50
2022-12-15T06:44:01.785Z,33.93
2022-12-15T06:46:30.801Z,36.60
2022-12-15T06:48:58.828Z,34.57
2022-12-15T06:51:29.126Z,35.13
2022-12-15T06:53:56.390Z,36.60
2022-12-15T06:56:33.725Z,35.30
2022-12-15T06:59:02.322Z,36.40
2022-12-15T07:01:30.334Z,36.13
2022-12-15T07:03:59.980Z,36.83
2022-12-15T07:06:27.523Z,34.70
2022-12-15T07:08:56.491Z,33.47
2022-12-15T07:11:42.476Z,33.57
2022-12-15T07:14:09.984Z,34.23
2022-12-15T07:16:36.817Z,31.17
2022-12-15T07:19:03.711Z,31.90
2022-12-15T07:21:30.704Z,34.10
2022-12-15T07:23:58.234Z,31.23
2022-12-15T07:26:25.803Z,32.47
2022-12-15T07:28:53.842Z,34.97
2022-12-15T07:31:21.832Z,32.60
2022-12-15T07:33:49.483Z,30.60
2022-12-15T07:36:16.549Z,32.27
2022-12-15T07:38:45.456Z,29.77
2022-12-15T07:41:18.285Z,33.50
2022-12-15T07:44:04.046Z,31.73
2022-12-15T07:46:31.456Z,30.37
2022-12-15T07:51:43.580Z,27.73
2022-12-15T07:54:11.450Z,28.93
2022-12-15T07:56:39.406Z,31.47
2022-12-15T07:59:07.505Z,29.33
2022-12-15T08:01:37.724Z,31.03
2022-12-15T08:04:05.599Z,32.10
2022-12-15T08:06:32.646Z,30.30
2022-12-15T08:08:59.477Z,29.57
2022-12-15T08:11:26.331Z,31.47
2022-12-15T08:14:03.165Z,29.90
2022-12-15T08:16:31.784Z,31.47
2022-12-15T08:18:58.709Z,30.27
2022-12-15T08:21:25.550Z,31.93
2022-12-15T08:23:52.547Z,30.07
2022-12-15T08:26:23.788Z,29.33
2022-12-15T08:28:54.124Z,30.57
2022-12-15T08:31:22.662Z,27.00
2022-12-15T08:33:50.120Z,30.27
2022-12-15T08:36:18.937Z,28.60
2022-12-15T08:38:47.176Z,27.50
2022-12-15T08:41:18.018Z,29.13
2022-12-15T08:43:49.033Z,30.67
2022-12-15T08:46:31.496Z,31.07
2022-12-15T08:48:58.507Z,32.03
2022-12-15T08:51:28.189Z,32.50
2022-12-15T08:53:58.435Z,33.43
2022-12-15T08:56:26.588Z,31.70
2022-12-15T08:58:59.789Z,30.93
2022-12-15T09:01:29.361Z,34.47
2022-12-15T09:03:57.373Z,32.23
2022-12-15T09:06:27.250Z,34.17
2022-12-15T09:08:59.013Z,32.93
2022-12-15T09:11:44.151Z,35.87
2022-12-15T09:14:11.069Z,35.97
2022-12-15T09:16:38.048Z,35.43
2022-12-15T09:19:05.075Z,34.67
2022-12-15T09:21:32.287Z,37.00
2022-12-15T09:24:01.648Z,30.10
2022-12-15T09:26:31.196Z,33.30
2022-12-15T09:28:58.123Z,32.60
2022-12-15T09:31:28.675Z,33.93
2022-12-15T09:33:57.724Z,33.10
2022-12-15T09:36:25.141Z,32.93
2022-12-15T09:38:52.014Z,35.83
2022-12-15T09:41:23.551Z,33.30
2022-12-15T09:44:01.669Z,34.07
2022-12-15T09:46:37.520Z,35.20
2022-12-15T09:49:16.387Z,32.57
2022-12-15T09:51:56.104Z,28.60
2022-12-15T09:54:26.819Z,30.77
2022-12-15T09:56:57.001Z,33.77
2022-12-15T09:59:39.328Z,32.23
2022-12-15T10:02:40.881Z,31.77
2022-12-15T10:06:07.209Z,31.97
2022-12-15T10:08:42.366Z,31.10
2022-12-15T10:11:38.161Z,31.97
2022-12-15T10:14:21.849Z,28.80
2022-12-15T10:17:14.977Z,29.10
2022-12-15T10:20:02.297Z,29.97
2022-12-15T10:22:36.749Z,30.43
2022-12-15T10:25:30.726Z,29.10
2022-12-15T10:28:37.243Z,29.90
2022-12-15T10:31:25.633Z,28.93
2022-12-15T10:34:01.165Z,27.63
2022-12-15T10:36:28.199Z,29.17
2022-12-15T10:38:54.895Z,26.87
2022-12-15T10:41:23.250Z,26.60
2022-12-15T10:43:52.031Z,25.93
2022-12-15T10:46:30.533Z,26.67
2022-12-15T10:49:24.651Z,26.40
2022-12-15T10:52:00.507Z,25.10
2022-12-15T10:54:34.515Z,29.27
2022-12-15T10:57:16.098Z,31.60
2022-12-15T10:59:43.415Z,32.17
2022-12-15T11:02:26.267Z,29.80
2022-12-15T11:04:56.528Z,25.57
2022-12-15T11:07:23.923Z,29.03
2022-12-15T11:09:51.231Z,26.70
2022-12-15T11:12:51.866Z,28.53
2022-12-15T11:15:21.894Z,24.03
2022-12-15T11:18:11.289Z,24.70
2022-12-15T11:20:41.040Z,28.63
2022-12-15T11:23:14.031Z,26.43
2022-12-15T11:25:47.000Z,24.70
2022-12-15T11:28:21.896Z,26.17
2022-12-15T11:31:03.934Z,26.30
2022-12-15T11:33:31.608Z,26.77
2022-12-15T11:36:14.463Z,25.20
2022-12-15T11:38:44.760Z,25.17
2022-12-15T11:41:30.982Z,25.53
2022-12-15T11:44:07.395Z,24.97
2022-12-15T11:46:41.523Z,26.53
2022-12-15T11:49:29.726Z,23.53
2022-12-15T11:52:03.969Z,27.53
2022-12-15T11:54:39.540Z,25.37
2022-12-15T11:57:21.203Z,28.17
2022-12-15T12:00:15.404Z,27.90
2022-12-15T12:03:01.082Z,27.70
2022-12-15T12:05:34.652Z,26.00
2022-12-15T12:08:01.979Z,27.63
2022-12-15T12:10:52.584Z,25.83
2022-12-15T12:13:27.545Z,27.53
2022-12-15T12:16:13.570Z,25.93
2022-12-15T12:18:43.832Z,27.87
2022-12-15T12:21:21.565Z,26.70
2022-12-15T12:24:14.211Z,25.73
2022-12-15T12:26:48.756Z,24.40
2022-12-15T12:29:31.321Z,23.17
2022-12-15T12:32:04.874Z,27.70
2022-12-15T12:34:51.727Z,22.83
2022-12-15T12:37:42.289Z,24.73
2022-12-15T12:40:20.800Z,25.93
2022-12-15T12:42:54.520Z,22.53
2022-12-15T12:45:24.693Z,21.83
2022-12-15T12:47:53.270Z,26.30
2022-12-15T12:50:26.068Z,27.17
2022-12-15T12:53:00.825Z,25.40
2022-12-15T12:55:30.526Z,26.93
2022-12-15T12:57:58.030Z,28.00
2022-12-15T13:00:27.491Z,28.17
2022-12-15T13:02:56.527Z,26.67
2022-12-15T13:05:26.879Z,27.20
2022-12-15T13:07:55.862Z,26.77
2022-12-15T13:10:24.657Z,26.97
2022-12-15T13:12:55.854Z,26.40
2022-12-15T13:15:29.164Z,29.87
2022-12-15T13:17:59.700Z,28.83
2022-12-15T13:20:37.475Z,25.03
2022-12-15T13:23:20.225Z,28.03
2022-12-15T13:25:56.491Z,31.00
2022-12-15T13:28:44.503Z,28.60
2022-12-15T13:31:19.354Z,31.10
2022-12-15T13:33:50.060Z,29.47
2022-12-15T13:36:35.933Z,32.70
2022-12-15T13:39:23.679Z,30.93
2022-12-15T13:42:31.575Z,30.70
2022-12-15T13:44:45.447Z,30.67
2022-12-15T13:47:16.171Z,32.93
2022-12-15T13:50:03.610Z,33.13
2022-12-15T13:53:08.504Z,32.10
2022-12-15T13:55:28.064Z,34.70
2022-12-15T13:57:57.625Z,35.00
2022-12-15T14:00:24.953Z,35.23
2022-12-15T14:02:54.763Z,36.90
2022-12-15T14:05:22.906Z,33.40
2022-12-15T14:07:54.490Z,34.37
2022-12-15T14:10:24.160Z,33.93
2022-12-15T14:12:52.235Z,37.47
2022-12-15T14:15:20.984Z,30.40
2022-12-15T14:17:50.722Z,34.27
2022-12-15T14:20:23.292Z,36.57
2022-12-15T14:22:52.422Z,36.10
2022-12-15T14:25:24.532Z,34.40
2022-12-15T14:27:51.766Z,36.50
2022-12-15T14:30:22.136Z,39.50
2022-12-15T14:33:01.440Z,37.27
2022-12-15T14:35:34.450Z,36.40
2022-12-15T14:38:03.020Z,36.23
2022-12-15T14:40:30.521Z,39.87
2022-12-15T14:42:57.842Z,34.73
2022-12-15T14:45:27.619Z,39.90
2022-12-15T14:48:30.648Z,37.63
2022-12-15T14:50:46.755Z,40.10
2022-12-15T14:53:18.292Z,43.13
2022-12-15T14:55:46.319Z,43.77
2022-12-15T14:58:32.947Z,41.37
2022-12-15T15:01:01.830Z,43.47
2022-12-15T15:03:36.907Z,42.87
2022-12-15T15:06:06.504Z,40.27
2022-12-15T15:08:35.698Z,43.33
2022-12-15T15:11:23.365Z,46.33
2022-12-15T15:13:54.470Z,46.37
2022-12-15T15:16:23.598Z,46.53
2022-12-15T15:18:52.180Z,42.97
2022-12-15T15:21:21.963Z,43.10
2022-12-15T15:24:21.815Z,45.47
2022-12-15T15:26:49.074Z,42.20
2022-12-15T15:29:35.215Z,42.93
2022-12-15T15:32:07.690Z,44.27
2022-12-15T15:34:34.957Z,43.90
2022-12-15T15:37:05.788Z,47.60
2022-12-15T15:39:33.088Z,45.37
2022-12-15T15:42:05.519Z,45.57
2022-12-15T15:44:33.717Z,46.47
2022-12-15T15:47:01.018Z,48.33
2022-12-15T15:49:28.634Z,47.17
2022-12-15T15:51:56.470Z,46.23
2022-12-15T15:54:24.511Z,50.20
2022-12-15T15:56:51.932Z,45.27
2022-12-15T15:59:24.918Z,49.17
2022-12-15T16:01:56.235Z,47.60
2022-12-15T16:04:24.214Z,51.83
2022-12-15T16:06:53.547Z,52.70
2022-12-15T16:09:21.045Z,50.60
2022-12-15T16:11:48.397Z,55.77
2022-12-15T16:14:17.751Z,52.23
2022-12-15T16:16:45.257Z,50.87
2022-12-15T16:19:12.805Z,53.70
2022-12-15T16:21:40.673Z,51.60
2022-12-15T16:24:14.289Z,53.63
2022-12-15T16:26:47.196Z,50.60
2022-12-15T16:29:18.610Z,48.63
2022-12-15T16:31:46.530Z,51.00
2022-12-15T16:34:16.328Z,49.17
2022-12-15T16:36:43.603Z,48.60
2022-12-15T16:39:28.165Z,47.13
2022-12-15T16:41:56.504Z,53.57
2022-12-15T16:44:42.602Z,48.47
2022-12-15T16:47:09.975Z,50.73
2022-12-15T16:49:40.247Z,53.83
2022-12-15T16:52:12.790Z,52.73
2022-12-15T16:54:40.126Z,48.57
2022-12-15T16:57:07.419Z,48.73
2022-12-15T16:59:35.892Z,51.83
2022-12-15T17:02:20.843Z,55.40
2022-12-15T17:04:48.270Z,55.80
2022-12-15T17:07:20.081Z,56.87
2022-12-15T17:09:49.040Z,54.33
2022-12-15T17:12:17.916Z,55.33
2022-12-15T17:14:45.270Z,55.43
2022-12-15T17:17:19.489Z,58.00
2022-12-15T17:22:34.186Z,54.90
2022-12-15T17:25:01.534Z,54.07
2022-12-15T17:27:30.436Z,59.17
2022-12-15T17:29:59.384Z,53.83
2022-12-15T17:32:26.747Z,56.17
2022-12-15T17:34:53.945Z,54.97
2022-12-15T17:37:21.216Z,60.57
2022-12-15T17:39:51.436Z,57.00
2022-12-15T17:42:19.701Z,55.83
2022-12-15T17:44:48.015Z,58.17
2022-12-15T17:47:16.032Z,56.97
2022-12-15T17:49:43.508Z,55.97
2022-12-15T17:52:25.184Z,61.50
2022-12-15T17:54:52.673Z,55.17
2022-12-15T17:57:19.850Z,65.37
2022-12-15T17:59:47.214Z,55.63
2022-12-15T18:02:15.023Z,57.17
2022-12-15T18:04:42.854Z,52.73
2022-12-15T18:07:14.485Z,55.33
2022-12-15T18:09:41.992Z,52.93
2022-12-15T18:12:19.716Z,54.17
2022-12-15T18:14:47.778Z,52.80
2022-12-15T18:17:15.121Z,53.50
2022-12-15T18:19:42.271Z,56.77
2022-12-15T18:22:21.046Z,52.47
2022-12-15T18:24:49.099Z,50.13
2022-12-15T18:27:26.885Z,52.27
2022-12-15T18:29:54.150Z,49.93
2022-12-15T18:32:22.970Z,47.97
2022-12-15T18:34:50.624Z,51.03
2022-12-15T18:37:18.754Z,48.33
2022-12-15T18:39:46.531Z,48.60
2022-12-15T18:42:17.668Z,49.23
2022-12-15T18:44:48.628Z,51.83
2022-12-15T18:47:17.145Z,51.27
2022-12-15T18:49:44.485Z,53.83
2022-12-15T18:52:19.120Z,49.37
2022-12-15T18:54:47.641Z,46.60
2022-12-15T18:57:41.053Z,48.10
2022-12-15T19:00:14.306Z,49.97
2022-12-15T19:02:42.015Z,46.37
2022-12-15T19:05:28.008Z,47.70
2022-12-15T19:07:57.419Z,52.70
2022-12-15T19:10:25.410Z,52.70
2022-12-15T19:12:58.252Z,49.27
2022-12-15T19:15:25.854Z,50.60
2022-12-15T19:18:12.152Z,48.40
2022-12-15T19:20:58.234Z,48.77
2022-12-15T19:23:25.685Z,46.80
2022-12-15T19:25:53.819Z,47.30
2022-12-15T19:28:23.280Z,52.80
2022-12-15T19:30:50.714Z,53.57
2022-12-15T19:33:18.857Z,49.10
2022-12-15T19:35:47.504Z,52.57
2022-12-15T19:38:21.110Z,54.57
2022-12-15T19:40:48.617Z,55.67
2022-12-15T19:43:18.833Z,49.57
2022-12-15T19:45:46.175Z,54.30
2022-12-15T19:48:13.492Z,50.73
2022-12-15T19:50:41.866Z,51.47
2022-12-15T19:53:24.390Z,54.23
2022-12-15T19:55:55.008Z,50.30
2022-12-15T19:58:28.736Z,52.03
2022-12-15T20:00:57.125Z,52.43
2022-12-15T20:03:24.621Z,54.87
2022-12-15T20:05:53.377Z,47.23
2022-12-15T20:08:22.716Z,51.27
2022-12-15T20:10:51.255Z,53.93
2022-12-15T20:13:18.577Z,70.50
2022-12-15T20:15:45.851Z,63.67
2022-12-15T20:18:13.101Z,53.43
2022-12-15T20:20:41.144Z,51.40
2022-12-15T20:23:13.544Z,52.20
2022-12-15T20:25:41.299Z,54.73
2022-12-15T20:28:14.307Z,53.37
2022-12-15T20:30:41.564Z,53.60
2022-12-15T20:33:08.981Z,50.03
2022-12-15T20:35:37.405Z,55.90
2022-12-15T20:38:15.986Z,52.43
2022-12-15T20:40:43.418Z,55.73
2022-12-15T20:43:17.609Z,55.70
2022-12-15T20:45:45.760Z,49.50
2022-12-15T20:48:13.812Z,54.57
2022-12-15T20:50:46.154Z,49.87
2022-12-15T20:53:17.781Z,53.23
2022-12-15T20:55:45.149Z,47.73
2022-12-15T20:58:12.318Z,54.07
2022-12-15T21:00:39.626Z,53.03
2022-12-15T21:03:25.436Z,48.37
2022-12-15T21:05:54.183Z,52.70
2022-12-15T21:08:23.257Z,51.67
2022-12-15T21:10:52.235Z,55.63
2022-12-15T21:13:22.170Z,53.47
2022-12-15T21:15:49.411Z,52.30
2022-12-15T21:21:07.206Z,54.10
2022-12-15T21:23:39.743Z,55.63
2022-12-15T21:26:10.428Z,60.40
2022-12-15T21:28:38.095Z,53.63
2022-12-15T21:31:05.825Z,60.13
2022-12-15T21:33:33.318Z,82.40
2022-12-15T21:36:00.476Z,66.17
2022-12-15T21:38:31.457Z,58.43
2022-12-15T21:41:00.105Z,52.60
2022-12-15T21:43:28.660Z,62.87
2022-12-15T21:45:56.039Z,56.20
2022-12-15T21:48:42.001Z,53.60
2022-12-15T21:51:16.194Z,54.77
2022-12-15T21:53:44.989Z,51.73
2022-12-15T21:56:19.470Z,53.07
2022-12-15T21:58:49.078Z,51.53
2022-12-15T22:01:18.004Z,52.30
2022-12-15T22:03:49.472Z,54.60
2022-12-15T22:06:21.509Z,54.33
2022-12-15T22:08:49.576Z,52.73
2022-12-15T22:11:22.620Z,51.50
2022-12-15T22:13:50.968Z,53.87
2022-12-15T22:16:18.300Z,56.07
2022-12-15T22:18:49.421Z,52.90
2022-12-15T22:21:16.632Z,59.00
2022-12-15T22:23:43.866Z,56.83
2022-12-15T22:26:20.019Z,53.47
2022-12-15T22:28:47.278Z,53.57
2022-12-15T22:31:14.552Z,55.93
2022-12-15T22:33:41.990Z,52.90
2022-12-15T22:36:09.271Z,51.87
2022-12-15T22:38:36.595Z,53.23
2022-12-15T22:41:04.443Z,52.40
2022-12-15T22:43:37.655Z,55.40
2022-12-15T22:46:24.700Z,52.60
2022-12-15T22:48:52.596Z,54.87
2022-12-15T22:51:22.066Z,60.67
2022-12-15T22:53:49.388Z,56.67
2022-12-15T22:56:26.616Z,54.83
2022-12-15T22:58:59.543Z,54.57
2022-12-15T23:01:29.420Z,55.87
2022-12-15T23:03:59.256Z,55.23
2022-12-15T23:06:27.240Z,57.00
2022-12-15T23:08:56.220Z,56.60
2022-12-15T23:11:39.699Z,50.07
2022-12-15T23:14:08.589Z,53.07
2022-12-15T23:16:35.943Z,53.67
2022-12-15T23:19:03.591Z,53.73
2022-12-15T23:21:32.311Z,53.27
2022-12-15T23:23:59.486Z,52.90
2022-12-15T23:26:27.160Z,52.63
2022-12-15T23:28:55.086Z,53.53
2022-12-15T23:31:22.662Z,56.50
2022-12-15T23:33:52.170Z,56.47
2022-12-15T23:36:19.882Z,49.10
2022-12-15T23:38:47.057Z,57.67
2022-12-15T23:41:18.495Z,57.10
2022-12-15T23:43:45.731Z,55.03
2022-12-15T23:46:13.313Z,54.00
2022-12-15T23:48:42.093Z,55.57
2022-12-15T23:51:11.127Z,53.37
2022-12-15T23:53:39.146Z,53.40
2022-12-15T23:56:08.115Z,56.70
2022-12-15T23:58:35.298Z,51.63
